sensor_id;sensor_type;location;lat;lon;timestamp;P1;durP1;ratioP1;P2;durP2;ratioP2
30998;SDS011;20549;50.042;8.968;2023-02-19T00:01:18;4.40;;;3.90;;
30998;SDS011;20549;50.042;8.968;2023-02-19T00:03:48;4.57;;;4.17;;
30998;SDS011;20549;50.042;8.968;2023-02-19T00:06:14;4.97;;;4.47;;
30998;SDS011;20549;50.042;8.968;2023-02-19T00:08:40;4.00;;;3.60;;
30998;SDS011;20549;50.042;8.968;2023-02-19T00:11:08;5.62;;;4.25;;
30998;SDS011;20549;50.042;8.968;2023-02-19T00:13:37;5.12;;;4.62;;
30998;SDS011;20549;50.042;8.968;2023-02-19T00:16:06;5.47;;;4.97;;
30998;SDS011;20549;50.042;8.968;2023-02-19T00:18:32;5.42;;;3.85;;
30998;SDS011;20549;50.042;8.968;2023-02-19T00:20:59;4.60;;;4.20;;
30998;SDS011;20549;50.042;8.968;2023-02-19T00:23:25;4.87;;;4.33;;
30998;SDS011;20549;50.042;8.968;2023-02-19T00:25:52;4.72;;;4.30;;
30998;SDS011;20549;50.042;8.968;2023-02-19T00:28:18;4.08;;;3.77;;
30998;SDS011;20549;50.042;8.968;2023-02-19T00:30:45;4.92;;;4.05;;
30998;SDS011;20549;50.042;8.968;2023-02-19T00:33:12;4.33;;;3.98;;
30998;SDS011;20549;50.042;8.968;2023-02-19T00:35:38;4.10;;;3.80;;
30998;SDS011;20549;50.042;8.968;2023-02-19T00:38:05;4.20;;;3.83;;
30998;SDS011;20549;50.042;8.968;2023-02-19T00:40:31;4.53;;;4.12;;
30998;SDS011;20549;50.042;8.968;2023-02-19T00:42:58;5.92;;;4.00;;
30998;SDS011;20549;50.042;8.968;2023-02-19T00:45:25;4.00;;;3.70;;
30998;SDS011;20549;50.042;8.968;2023-02-19T00:47:51;4.23;;;3.93;;
30998;SDS011;20549;50.042;8.968;2023-02-19T00:50:18;5.08;;;4.08;;
30998;SDS011;20549;50.042;8.968;2023-02-19T00:52:44;4.30;;;3.90;;
30998;SDS011;20549;50.042;8.968;2023-02-19T00:55:11;4.35;;;3.95;;
30998;SDS011;20549;50.042;8.968;2023-02-19T00:57:37;4.40;;;4.03;;
30998;SDS011;20549;50.042;8.968;2023-02-19T01:00:04;4.08;;;3.70;;
30998;SDS011;20549;50.042;8.968;2023-02-19T01:02:31;3.25;;;2.95;;
30998;SDS011;20549;50.042;8.968;2023-02-19T01:04:57;4.17;;;3.77;;
30998;SDS011;20549;50.042;8.968;2023-02-19T01:07:24;4.33;;;3.93;;
30998;SDS011;20549;50.042;8.968;2023-02-19T01:09:50;4.37;;;3.97;;
30998;SDS011;20549;50.042;8.968;2023-02-19T01:12:17;3.63;;;3.33;;
30998;SDS011;20549;50.042;8.968;2023-02-19T01:14:44;4.40;;;4.00;;
30998;SDS011;20549;50.042;8.968;2023-02-19T01:17:10;5.20;;;3.70;;
30998;SDS011;20549;50.042;8.968;2023-02-19T01:19:37;4.43;;;4.10;;
30998;SDS011;20549;50.042;8.968;2023-02-19T01:22:03;3.95;;;3.65;;
30998;SDS011;20549;50.042;8.968;2023-02-19T01:24:30;3.90;;;3.60;;
30998;SDS011;20549;50.042;8.968;2023-02-19T01:26:57;4.60;;;4.20;;
30998;SDS011;20549;50.042;8.968;2023-02-19T01:29:23;4.13;;;3.83;;
30998;SDS011;20549;50.042;8.968;2023-02-19T01:31:50;4.20;;;3.80;;
30998;SDS011;20549;50.042;8.968;2023-02-19T01:34:16;3.70;;;3.40;;
30998;SDS011;20549;50.042;8.968;2023-02-19T01:36:43;4.13;;;3.73;;
30998;SDS011;20549;50.042;8.968;2023-02-19T01:39:09;3.50;;;3.30;;
30998;SDS011;20549;50.042;8.968;2023-02-19T01:41:38;4.92;;;4.53;;
30998;SDS011;20549;50.042;8.968;2023-02-19T01:44:07;3.60;;;3.30;;
30998;SDS011;20549;50.042;8.968;2023-02-19T01:46:35;3.40;;;3.08;;
30998;SDS011;20549;50.042;8.968;2023-02-19T01:49:05;3.30;;;3.07;;
30998;SDS011;20549;50.042;8.968;2023-02-19T01:51:28;3.55;;;3.27;;
30998;SDS011;20549;50.042;8.968;2023-02-19T01:53:55;3.98;;;3.58;;
30998;SDS011;20549;50.042;8.968;2023-02-19T01:56:21;3.90;;;3.50;;
30998;SDS011;20549;50.042;8.968;2023-02-19T01:58:47;4.27;;;3.30;;
30998;SDS011;20549;50.042;8.968;2023-02-19T02:01:14;4.00;;;3.37;;
30998;SDS011;20549;50.042;8.968;2023-02-19T02:03:41;3.27;;;2.98;;
30998;SDS011;20549;50.042;8.968;2023-02-19T02:06:08;3.52;;;3.22;;
30998;SDS011;20549;50.042;8.968;2023-02-19T02:08:34;4.15;;;3.45;;
30998;SDS011;20549;50.042;8.968;2023-02-19T02:11:18;3.85;;;3.55;;
30998;SDS011;20549;50.042;8.968;2023-02-19T02:13:45;3.60;;;3.30;;
30998;SDS011;20549;50.042;8.968;2023-02-19T02:16:29;3.10;;;2.90;;
30998;SDS011;20549;50.042;8.968;2023-02-19T02:27:16;3.87;;;3.47;;
30998;SDS011;20549;50.042;8.968;2023-02-19T02:30:02;3.50;;;3.25;;
30998;SDS011;20549;50.042;8.968;2023-02-19T02:32:25;3.47;;;3.17;;
30998;SDS011;20549;50.042;8.968;2023-02-19T02:34:52;4.28;;;3.60;;
30998;SDS011;20549;50.042;8.968;2023-02-19T02:37:18;3.70;;;3.40;;
30998;SDS011;20549;50.042;8.968;2023-02-19T02:39:45;3.40;;;3.10;;
30998;SDS011;20549;50.042;8.968;2023-02-19T02:42:11;3.60;;;3.30;;
30998;SDS011;20549;50.042;8.968;2023-02-19T02:44:53;3.53;;;3.23;;
30998;SDS011;20549;50.042;8.968;2023-02-19T02:47:46;3.17;;;2.97;;
30998;SDS011;20549;50.042;8.968;2023-02-19T02:50:18;3.00;;;2.80;;
30998;SDS011;20549;50.042;8.968;2023-02-19T02:52:43;4.13;;;3.33;;
30998;SDS011;20549;50.042;8.968;2023-02-19T02:55:28;3.25;;;3.05;;
30998;SDS011;20549;50.042;8.968;2023-02-19T02:57:54;3.42;;;3.12;;
30998;SDS011;20549;50.042;8.968;2023-02-19T03:00:21;3.87;;;3.30;;
30998;SDS011;20549;50.042;8.968;2023-02-19T03:02:47;3.40;;;3.10;;
30998;SDS011;20549;50.042;8.968;2023-02-19T03:10:27;3.40;;;3.10;;
30998;SDS011;20549;50.042;8.968;2023-02-19T03:12:52;3.73;;;3.47;;
30998;SDS011;20549;50.042;8.968;2023-02-19T03:15:38;3.30;;;3.00;;
30998;SDS011;20549;50.042;8.968;2023-02-19T03:18:22;3.90;;;3.60;;
30998;SDS011;20549;50.042;8.968;2023-02-19T03:21:06;4.27;;;3.30;;
30998;SDS011;20549;50.042;8.968;2023-02-19T03:23:33;4.30;;;3.93;;
30998;SDS011;20549;50.042;8.968;2023-02-19T03:26:18;3.85;;;3.45;;
30998;SDS011;20549;50.042;8.968;2023-02-19T03:28:44;3.77;;;3.45;;
30998;SDS011;20549;50.042;8.968;2023-02-19T03:31:29;4.53;;;3.13;;
30998;SDS011;20549;50.042;8.968;2023-02-19T03:33:57;3.87;;;3.47;;
30998;SDS011;20549;50.042;8.968;2023-02-19T03:36:22;3.00;;;2.80;;
30998;SDS011;20549;50.042;8.968;2023-02-19T03:38:53;3.40;;;3.15;;
30998;SDS011;20549;50.042;8.968;2023-02-19T03:41:22;3.33;;;3.07;;
30998;SDS011;20549;50.042;8.968;2023-02-19T03:46:20;3.80;;;3.37;;
30998;SDS011;20549;50.042;8.968;2023-02-19T03:48:47;3.17;;;2.98;;
30998;SDS011;20549;50.042;8.968;2023-02-19T03:51:19;2.75;;;2.55;;
30998;SDS011;20549;50.042;8.968;2023-02-19T03:54:00;3.83;;;2.83;;
30998;SDS011;20549;50.042;8.968;2023-02-19T03:56:37;2.92;;;2.72;;
30998;SDS011;20549;50.042;8.968;2023-02-19T03:59:09;3.00;;;2.80;;
30998;SDS011;20549;50.042;8.968;2023-02-19T04:01:39;3.03;;;2.80;;
30998;SDS011;20549;50.042;8.968;2023-02-19T04:04:17;3.02;;;2.80;;
30998;SDS011;20549;50.042;8.968;2023-02-19T04:06:42;5.80;;;2.77;;
30998;SDS011;20549;50.042;8.968;2023-02-19T04:09:08;2.80;;;2.60;;
30998;SDS011;20549;50.042;8.968;2023-02-19T04:11:35;2.67;;;2.47;;
30998;SDS011;20549;50.042;8.968;2023-02-19T04:14:18;2.80;;;2.60;;
30998;SDS011;20549;50.042;8.968;2023-02-19T04:16:45;2.80;;;2.60;;
30998;SDS011;20549;50.042;8.968;2023-02-19T04:19:13;2.70;;;2.50;;
30998;SDS011;20549;50.042;8.968;2023-02-19T04:21:39;2.42;;;2.22;;
30998;SDS011;20549;50.042;8.968;2023-02-19T04:24:08;2.92;;;2.67;;
30998;SDS011;20549;50.042;8.968;2023-02-19T04:26:32;3.27;;;2.50;;
30998;SDS011;20549;50.042;8.968;2023-02-19T04:28:59;2.30;;;2.10;;
30998;SDS011;20549;50.042;8.968;2023-02-19T04:31:26;2.80;;;2.60;;
30998;SDS011;20549;50.042;8.968;2023-02-19T04:33:52;2.67;;;2.47;;
30998;SDS011;20549;50.042;8.968;2023-02-19T04:36:19;2.50;;;2.30;;
30998;SDS011;20549;50.042;8.968;2023-02-19T04:38:45;2.72;;;2.50;;
30998;SDS011;20549;50.042;8.968;2023-02-19T04:41:12;2.20;;;2.10;;
30998;SDS011;20549;50.042;8.968;2023-02-19T04:43:38;2.30;;;2.10;;
30998;SDS011;20549;50.042;8.968;2023-02-19T04:46:05;2.47;;;2.13;;
30998;SDS011;20549;50.042;8.968;2023-02-19T04:48:32;2.50;;;2.30;;
30998;SDS011;20549;50.042;8.968;2023-02-19T04:50:58;2.20;;;2.00;;
30998;SDS011;20549;50.042;8.968;2023-02-19T04:53:25;2.43;;;2.23;;
30998;SDS011;20549;50.042;8.968;2023-02-19T04:55:51;2.97;;;2.57;;
30998;SDS011;20549;50.042;8.968;2023-02-19T04:58:18;2.43;;;2.23;;
30998;SDS011;20549;50.042;8.968;2023-02-19T05:00:44;2.23;;;2.13;;
30998;SDS011;20549;50.042;8.968;2023-02-19T05:03:11;2.43;;;2.23;;
30998;SDS011;20549;50.042;8.968;2023-02-19T05:05:38;2.50;;;2.30;;
30998;SDS011;20549;50.042;8.968;2023-02-19T05:08:04;2.60;;;2.47;;
30998;SDS011;20549;50.042;8.968;2023-02-19T05:10:31;2.60;;;2.40;;
30998;SDS011;20549;50.042;8.968;2023-02-19T05:12:57;2.40;;;2.20;;
30998;SDS011;20549;50.042;8.968;2023-02-19T05:15:24;2.35;;;2.20;;
30998;SDS011;20549;50.042;8.968;2023-02-19T05:17:51;2.35;;;2.25;;
30998;SDS011;20549;50.042;8.968;2023-02-19T05:20:17;2.27;;;2.07;;
30998;SDS011;20549;50.042;8.968;2023-02-19T05:22:44;2.33;;;2.23;;
30998;SDS011;20549;50.042;8.968;2023-02-19T05:25:10;3.70;;;2.50;;
30998;SDS011;20549;50.042;8.968;2023-02-19T05:27:37;2.50;;;2.30;;
30998;SDS011;20549;50.042;8.968;2023-02-19T05:30:04;2.20;;;2.00;;
30998;SDS011;20549;50.042;8.968;2023-02-19T05:32:30;1.98;;;1.87;;
30998;SDS011;20549;50.042;8.968;2023-02-19T05:34:57;1.95;;;1.85;;
30998;SDS011;20549;50.042;8.968;2023-02-19T05:37:23;1.80;;;1.70;;
30998;SDS011;20549;50.042;8.968;2023-02-19T05:39:50;1.80;;;1.70;;
30998;SDS011;20549;50.042;8.968;2023-02-19T05:42:16;1.63;;;1.53;;
30998;SDS011;20549;50.042;8.968;2023-02-19T05:44:43;1.53;;;1.43;;
30998;SDS011;20549;50.042;8.968;2023-02-19T05:47:10;1.53;;;1.43;;
30998;SDS011;20549;50.042;8.968;2023-02-19T05:49:36;1.80;;;1.70;;
30998;SDS011;20549;50.042;8.968;2023-02-19T05:52:03;1.80;;;1.70;;
30998;SDS011;20549;50.042;8.968;2023-02-19T05:54:30;1.80;;;1.70;;
30998;SDS011;20549;50.042;8.968;2023-02-19T05:56:56;1.43;;;1.43;;
30998;SDS011;20549;50.042;8.968;2023-02-19T05:59:23;1.27;;;1.20;;
30998;SDS011;20549;50.042;8.968;2023-02-19T06:01:50;1.53;;;1.43;;
30998;SDS011;20549;50.042;8.968;2023-02-19T06:04:16;1.60;;;1.50;;
30998;SDS011;20549;50.042;8.968;2023-02-19T06:06:42;1.67;;;1.57;;
30998;SDS011;20549;50.042;8.968;2023-02-19T06:09:09;1.60;;;1.50;;
30998;SDS011;20549;50.042;8.968;2023-02-19T06:11:36;1.65;;;1.55;;
30998;SDS011;20549;50.042;8.968;2023-02-19T06:14:02;1.50;;;1.40;;
30998;SDS011;20549;50.042;8.968;2023-02-19T06:16:29;1.63;;;1.53;;
30998;SDS011;20549;50.042;8.968;2023-02-19T06:18:55;1.60;;;1.50;;
30998;SDS011;20549;50.042;8.968;2023-02-19T06:21:22;1.50;;;1.40;;
30998;SDS011;20549;50.042;8.968;2023-02-19T06:23:48;1.67;;;1.57;;
30998;SDS011;20549;50.042;8.968;2023-02-19T06:26:18;1.93;;;1.73;;
30998;SDS011;20549;50.042;8.968;2023-02-19T06:28:42;1.60;;;1.50;;
30998;SDS011;20549;50.042;8.968;2023-02-19T06:31:08;1.23;;;1.23;;
30998;SDS011;20549;50.042;8.968;2023-02-19T06:33:35;1.40;;;1.30;;
30998;SDS011;20549;50.042;8.968;2023-02-19T06:36:02;1.20;;;1.20;;
30998;SDS011;20549;50.042;8.968;2023-02-19T06:38:28;1.10;;;1.10;;
30998;SDS011;20549;50.042;8.968;2023-02-19T06:40:58;1.20;;;1.20;;
30998;SDS011;20549;50.042;8.968;2023-02-19T06:43:21;1.30;;;1.20;;
30998;SDS011;20549;50.042;8.968;2023-02-19T06:45:48;1.20;;;1.10;;
30998;SDS011;20549;50.042;8.968;2023-02-19T06:48:14;1.33;;;1.27;;
30998;SDS011;20549;50.042;8.968;2023-02-19T06:50:41;1.50;;;1.40;;
30998;SDS011;20549;50.042;8.968;2023-02-19T06:53:08;1.40;;;1.30;;
30998;SDS011;20549;50.042;8.968;2023-02-19T06:55:34;1.13;;;1.13;;
30998;SDS011;20549;50.042;8.968;2023-02-19T06:58:01;1.40;;;1.30;;
30998;SDS011;20549;50.042;8.968;2023-02-19T07:00:27;1.37;;;1.27;;
30998;SDS011;20549;50.042;8.968;2023-02-19T07:02:54;1.07;;;1.07;;
30998;SDS011;20549;50.042;8.968;2023-02-19T07:05:21;1.43;;;1.23;;
30998;SDS011;20549;50.042;8.968;2023-02-19T07:07:47;1.20;;;1.10;;
30998;SDS011;20549;50.042;8.968;2023-02-19T07:10:14;1.07;;;1.07;;
30998;SDS011;20549;50.042;8.968;2023-02-19T07:12:40;1.30;;;1.20;;
30998;SDS011;20549;50.042;8.968;2023-02-19T07:15:07;0.72;;;0.72;;
30998;SDS011;20549;50.042;8.968;2023-02-19T07:17:34;0.90;;;0.90;;
30998;SDS011;20549;50.042;8.968;2023-02-19T07:20:00;0.80;;;0.80;;
30998;SDS011;20549;50.042;8.968;2023-02-19T07:22:27;1.10;;;1.10;;
30998;SDS011;20549;50.042;8.968;2023-02-19T07:24:53;1.17;;;1.07;;
30998;SDS011;20549;50.042;8.968;2023-02-19T07:27:20;1.00;;;1.00;;
30998;SDS011;20549;50.042;8.968;2023-02-19T07:29:46;1.10;;;1.10;;
30998;SDS011;20549;50.042;8.968;2023-02-19T07:32:13;1.10;;;1.00;;
30998;SDS011;20549;50.042;8.968;2023-02-19T07:34:40;1.15;;;1.07;;
30998;SDS011;20549;50.042;8.968;2023-02-19T07:37:06;1.07;;;1.07;;
30998;SDS011;20549;50.042;8.968;2023-02-19T07:39:33;1.37;;;1.27;;
30998;SDS011;20549;50.042;8.968;2023-02-19T07:41:59;1.17;;;1.10;;
30998;SDS011;20549;50.042;8.968;2023-02-19T07:44:26;1.02;;;1.02;;
30998;SDS011;20549;50.042;8.968;2023-02-19T07:46:52;1.40;;;1.30;;
30998;SDS011;20549;50.042;8.968;2023-02-19T07:49:19;1.15;;;1.12;;
30998;SDS011;20549;50.042;8.968;2023-02-19T07:51:46;1.80;;;1.27;;
30998;SDS011;20549;50.042;8.968;2023-02-19T07:54:12;1.50;;;1.30;;
30998;SDS011;20549;50.042;8.968;2023-02-19T07:56:39;2.07;;;1.27;;
30998;SDS011;20549;50.042;8.968;2023-02-19T07:59:05;1.82;;;1.02;;
30998;SDS011;20549;50.042;8.968;2023-02-19T08:01:32;1.17;;;1.07;;
30998;SDS011;20549;50.042;8.968;2023-02-19T08:04:17;1.17;;;1.07;;
30998;SDS011;20549;50.042;8.968;2023-02-19T08:06:43;2.17;;;1.20;;
30998;SDS011;20549;50.042;8.968;2023-02-19T08:09:10;1.17;;;1.10;;
30998;SDS011;20549;50.042;8.968;2023-02-19T08:11:37;1.70;;;1.60;;
30998;SDS011;20549;50.042;8.968;2023-02-19T08:14:25;2.17;;;1.30;;
30998;SDS011;20549;50.042;8.968;2023-02-19T08:16:51;1.60;;;1.50;;
30998;SDS011;20549;50.042;8.968;2023-02-19T08:19:18;1.40;;;1.13;;
30998;SDS011;20549;50.042;8.968;2023-02-19T08:21:44;1.35;;;1.20;;
30998;SDS011;20549;50.042;8.968;2023-02-19T08:24:11;1.00;;;1.00;;
30998;SDS011;20549;50.042;8.968;2023-02-19T08:26:37;2.27;;;1.10;;
30998;SDS011;20549;50.042;8.968;2023-02-19T08:29:04;1.97;;;1.10;;
30998;SDS011;20549;50.042;8.968;2023-02-19T08:31:31;1.47;;;1.00;;
30998;SDS011;20549;50.042;8.968;2023-02-19T08:33:57;2.15;;;1.12;;
30998;SDS011;20549;50.042;8.968;2023-02-19T08:36:24;1.40;;;1.30;;
30998;SDS011;20549;50.042;8.968;2023-02-19T08:38:50;5.83;;;1.00;;
30998;SDS011;20549;50.042;8.968;2023-02-19T08:41:17;1.67;;;0.97;;
30998;SDS011;20549;50.042;8.968;2023-02-19T08:43:43;0.93;;;0.90;;
30998;SDS011;20549;50.042;8.968;2023-02-19T08:46:10;1.30;;;1.20;;
30998;SDS011;20549;50.042;8.968;2023-02-19T08:48:37;1.42;;;1.12;;
30998;SDS011;20549;50.042;8.968;2023-02-19T08:51:05;3.07;;;1.77;;
30998;SDS011;20549;50.042;8.968;2023-02-19T08:53:30;1.40;;;0.90;;
30998;SDS011;20549;50.042;8.968;2023-02-19T08:55:56;2.00;;;1.10;;
30998;SDS011;20549;50.042;8.968;2023-02-19T08:58:23;1.55;;;1.10;;
30998;SDS011;20549;50.042;8.968;2023-02-19T09:00:50;1.80;;;1.20;;
30998;SDS011;20549;50.042;8.968;2023-02-19T09:03:16;1.05;;;0.95;;
30998;SDS011;20549;50.042;8.968;2023-02-19T09:05:43;1.63;;;1.20;;
30998;SDS011;20549;50.042;8.968;2023-02-19T09:08:09;1.12;;;1.00;;
30998;SDS011;20549;50.042;8.968;2023-02-19T09:10:36;2.40;;;1.40;;
30998;SDS011;20549;50.042;8.968;2023-02-19T09:13:03;1.93;;;1.30;;
30998;SDS011;20549;50.042;8.968;2023-02-19T09:15:29;3.67;;;1.10;;
30998;SDS011;20549;50.042;8.968;2023-02-19T09:17:56;2.70;;;1.20;;
30998;SDS011;20549;50.042;8.968;2023-02-19T09:20:22;2.63;;;1.37;;
30998;SDS011;20549;50.042;8.968;2023-02-19T09:22:49;2.43;;;1.10;;
30998;SDS011;20549;50.042;8.968;2023-02-19T09:25:15;2.33;;;1.10;;
30998;SDS011;20549;50.042;8.968;2023-02-19T09:27:42;2.85;;;1.25;;
30998;SDS011;20549;50.042;8.968;2023-02-19T09:30:09;1.22;;;1.12;;
30998;SDS011;20549;50.042;8.968;2023-02-19T09:32:35;2.15;;;1.37;;
30998;SDS011;20549;50.042;8.968;2023-02-19T09:35:02;1.92;;;1.22;;
30998;SDS011;20549;50.042;8.968;2023-02-19T09:37:28;1.75;;;1.22;;
30998;SDS011;20549;50.042;8.968;2023-02-19T09:39:55;2.83;;;1.40;;
30998;SDS011;20549;50.042;8.968;2023-02-19T09:42:22;1.15;;;1.05;;
30998;SDS011;20549;50.042;8.968;2023-02-19T09:44:49;1.12;;;1.02;;
30998;SDS011;20549;50.042;8.968;2023-02-19T09:47:37;2.60;;;1.35;;
30998;SDS011;20549;50.042;8.968;2023-02-19T09:49:48;1.52;;;1.02;;
30998;SDS011;20549;50.042;8.968;2023-02-19T09:52:32;2.47;;;1.40;;
30998;SDS011;20549;50.042;8.968;2023-02-19T09:55:12;2.17;;;1.22;;
30998;SDS011;20549;50.042;8.968;2023-02-19T09:57:31;1.15;;;1.10;;
30998;SDS011;20549;50.042;8.968;2023-02-19T10:00:13;2.45;;;1.17;;
30998;SDS011;20549;50.042;8.968;2023-02-19T10:02:44;2.72;;;1.55;;
30998;SDS011;20549;50.042;8.968;2023-02-19T10:05:11;1.37;;;1.20;;
30998;SDS011;20549;50.042;8.968;2023-02-19T10:07:42;1.45;;;1.35;;
30998;SDS011;20549;50.042;8.968;2023-02-19T10:12:42;2.02;;;1.22;;
30998;SDS011;20549;50.042;8.968;2023-02-19T10:15:08;2.70;;;1.20;;
30998;SDS011;20549;50.042;8.968;2023-02-19T10:17:33;4.35;;;1.82;;
30998;SDS011;20549;50.042;8.968;2023-02-19T10:20:00;1.67;;;1.27;;
30998;SDS011;20549;50.042;8.968;2023-02-19T10:22:26;3.77;;;1.57;;
30998;SDS011;20549;50.042;8.968;2023-02-19T10:24:53;2.17;;;1.75;;
30998;SDS011;20549;50.042;8.968;2023-02-19T10:27:19;2.25;;;1.10;;
30998;SDS011;20549;50.042;8.968;2023-02-19T10:29:46;1.87;;;1.40;;
30998;SDS011;20549;50.042;8.968;2023-02-19T10:32:19;2.02;;;1.00;;
30998;SDS011;20549;50.042;8.968;2023-02-19T10:34:45;2.98;;;1.40;;
30998;SDS011;20549;50.042;8.968;2023-02-19T10:37:17;1.92;;;1.30;;
30998;SDS011;20549;50.042;8.968;2023-02-19T10:39:44;2.85;;;1.35;;
30998;SDS011;20549;50.042;8.968;2023-02-19T10:42:17;2.20;;;1.30;;
30998;SDS011;20549;50.042;8.968;2023-02-19T10:44:44;4.00;;;1.30;;
30998;SDS011;20549;50.042;8.968;2023-02-19T10:47:13;1.40;;;1.30;;
30998;SDS011;20549;50.042;8.968;2023-02-19T10:49:39;2.92;;;1.45;;
30998;SDS011;20549;50.042;8.968;2023-02-19T10:52:12;2.27;;;1.50;;
30998;SDS011;20549;50.042;8.968;2023-02-19T10:54:40;2.42;;;1.80;;
30998;SDS011;20549;50.042;8.968;2023-02-19T10:59:50;5.70;;;2.12;;
30998;SDS011;20549;50.042;8.968;2023-02-19T11:02:16;3.80;;;2.10;;
30998;SDS011;20549;50.042;8.968;2023-02-19T11:04:46;2.52;;;1.67;;
30998;SDS011;20549;50.042;8.968;2023-02-19T11:07:14;3.37;;;1.75;;
30998;SDS011;20549;50.042;8.968;2023-02-19T11:09:45;2.60;;;1.77;;
30998;SDS011;20549;50.042;8.968;2023-02-19T11:12:20;2.83;;;1.80;;
30998;SDS011;20549;50.042;8.968;2023-02-19T11:14:42;2.33;;;1.98;;
30998;SDS011;20549;50.042;8.968;2023-02-19T11:17:19;3.08;;;1.82;;
30998;SDS011;20549;50.042;8.968;2023-02-19T11:19:40;3.60;;;1.85;;
30998;SDS011;20549;50.042;8.968;2023-02-19T11:25:17;2.70;;;2.00;;
30998;SDS011;20549;50.042;8.968;2023-02-19T11:27:23;4.83;;;1.92;;
30998;SDS011;20549;50.042;8.968;2023-02-19T11:29:50;5.58;;;1.82;;
30998;SDS011;20549;50.042;8.968;2023-02-19T11:32:20;2.27;;;1.98;;
30998;SDS011;20549;50.042;8.968;2023-02-19T11:34:43;2.92;;;2.25;;
30998;SDS011;20549;50.042;8.968;2023-02-19T11:37:13;2.05;;;1.65;;
30998;SDS011;20549;50.042;8.968;2023-02-19T11:39:40;4.85;;;1.98;;
30998;SDS011;20549;50.042;8.968;2023-02-19T11:42:14;2.42;;;1.60;;
30998;SDS011;20549;50.042;8.968;2023-02-19T11:44:48;1.50;;;1.40;;
30998;SDS011;20549;50.042;8.968;2023-02-19T12:00:54;2.60;;;1.80;;
30998;SDS011;20549;50.042;8.968;2023-02-19T12:11:26;4.20;;;1.45;;
30998;SDS011;20549;50.042;8.968;2023-02-19T12:22:26;4.37;;;2.00;;
30998;SDS011;20549;50.042;8.968;2023-02-19T12:27:48;2.98;;;1.98;;
30998;SDS011;20549;50.042;8.968;2023-02-19T12:38:15;2.45;;;2.02;;
30998;SDS011;20549;50.042;8.968;2023-02-19T12:40:44;3.35;;;1.95;;
30998;SDS011;20549;50.042;8.968;2023-02-19T12:43:14;2.95;;;1.90;;
30998;SDS011;20549;50.042;8.968;2023-02-19T12:48:19;3.10;;;2.08;;
30998;SDS011;20549;50.042;8.968;2023-02-19T12:50:44;2.55;;;2.12;;
30998;SDS011;20549;50.042;8.968;2023-02-19T12:53:31;3.00;;;1.92;;
30998;SDS011;20549;50.042;8.968;2023-02-19T12:55:55;3.77;;;1.85;;
30998;SDS011;20549;50.042;8.968;2023-02-19T12:58:27;2.12;;;1.70;;
30998;SDS011;20549;50.042;8.968;2023-02-19T13:00:52;2.35;;;1.98;;
30998;SDS011;20549;50.042;8.968;2023-02-19T13:03:21;3.20;;;2.15;;
30998;SDS011;20549;50.042;8.968;2023-02-19T13:05:52;2.12;;;1.70;;
30998;SDS011;20549;50.042;8.968;2023-02-19T13:13:32;2.25;;;1.65;;
30998;SDS011;20549;50.042;8.968;2023-02-19T13:16:07;2.27;;;1.50;;
30998;SDS011;20549;50.042;8.968;2023-02-19T13:18:39;2.08;;;1.70;;
30998;SDS011;20549;50.042;8.968;2023-02-19T13:21:05;1.57;;;1.47;;
30998;SDS011;20549;50.042;8.968;2023-02-19T13:23:32;1.98;;;1.60;;
30998;SDS011;20549;50.042;8.968;2023-02-19T13:29:13;1.75;;;1.50;;
30998;SDS011;20549;50.042;8.968;2023-02-19T13:37:18;2.33;;;1.60;;
30998;SDS011;20549;50.042;8.968;2023-02-19T13:39:48;1.32;;;1.22;;
30998;SDS011;20549;50.042;8.968;2023-02-19T13:42:24;2.17;;;1.27;;
30998;SDS011;20549;50.042;8.968;2023-02-19T13:44:49;2.27;;;1.42;;
30998;SDS011;20549;50.042;8.968;2023-02-19T13:50:19;2.10;;;1.67;;
30998;SDS011;20549;50.042;8.968;2023-02-19T13:52:49;1.90;;;1.25;;
30998;SDS011;20549;50.042;8.968;2023-02-19T14:00:58;3.67;;;2.05;;
30998;SDS011;20549;50.042;8.968;2023-02-19T14:03:25;2.02;;;1.80;;
30998;SDS011;20549;50.042;8.968;2023-02-19T14:06:01;1.80;;;1.60;;
30998;SDS011;20549;50.042;8.968;2023-02-19T14:08:50;3.05;;;1.62;;
30998;SDS011;20549;50.042;8.968;2023-02-19T14:11:08;3.17;;;1.40;;
30998;SDS011;20549;50.042;8.968;2023-02-19T14:13:56;2.02;;;1.57;;
30998;SDS011;20549;50.042;8.968;2023-02-19T14:19:01;2.02;;;1.50;;
30998;SDS011;20549;50.042;8.968;2023-02-19T14:21:34;1.67;;;1.25;;
30998;SDS011;20549;50.042;8.968;2023-02-19T14:24:00;1.10;;;1.10;;
30998;SDS011;20549;50.042;8.968;2023-02-19T14:26:29;2.30;;;1.42;;
30998;SDS011;20549;50.042;8.968;2023-02-19T14:28:55;1.35;;;1.20;;
30998;SDS011;20549;50.042;8.968;2023-02-19T14:31:28;1.65;;;1.52;;
30998;SDS011;20549;50.042;8.968;2023-02-19T14:34:00;2.72;;;1.45;;
30998;SDS011;20549;50.042;8.968;2023-02-19T14:36:28;2.37;;;1.30;;
30998;SDS011;20549;50.042;8.968;2023-02-19T14:39:03;1.40;;;1.30;;
30998;SDS011;20549;50.042;8.968;2023-02-19T14:41:24;1.50;;;1.37;;
30998;SDS011;20549;50.042;8.968;2023-02-19T14:43:51;1.57;;;1.40;;
30998;SDS011;20549;50.042;8.968;2023-02-19T14:46:28;2.33;;;1.65;;
30998;SDS011;20549;50.042;8.968;2023-02-19T14:48:59;1.30;;;1.20;;
30998;SDS011;20549;50.042;8.968;2023-02-19T14:51:35;2.42;;;1.45;;
30998;SDS011;20549;50.042;8.968;2023-02-19T14:54:09;1.72;;;1.37;;
30998;SDS011;20549;50.042;8.968;2023-02-19T14:56:31;2.20;;;1.25;;
30998;SDS011;20549;50.042;8.968;2023-02-19T15:01:39;1.07;;;1.05;;
30998;SDS011;20549;50.042;8.968;2023-02-19T15:04:05;1.20;;;1.00;;
30998;SDS011;20549;50.042;8.968;2023-02-19T15:06:34;1.60;;;0.90;;
30998;SDS011;20549;50.042;8.968;2023-02-19T15:09:03;2.55;;;1.10;;
30998;SDS011;20549;50.042;8.968;2023-02-19T15:11:28;1.30;;;0.88;;
30998;SDS011;20549;50.042;8.968;2023-02-19T15:13:58;1.37;;;0.80;;
30998;SDS011;20549;50.042;8.968;2023-02-19T15:16:24;2.37;;;0.98;;
30998;SDS011;20549;50.042;8.968;2023-02-19T15:18:50;1.30;;;1.20;;
30998;SDS011;20549;50.042;8.968;2023-02-19T15:21:24;1.47;;;0.98;;
30998;SDS011;20549;50.042;8.968;2023-02-19T15:23:46;2.67;;;1.20;;
30998;SDS011;20549;50.042;8.968;2023-02-19T15:26:16;1.00;;;1.00;;
30998;SDS011;20549;50.042;8.968;2023-02-19T15:28:39;1.00;;;1.00;;
30998;SDS011;20549;50.042;8.968;2023-02-19T15:31:09;0.98;;;0.90;;
30998;SDS011;20549;50.042;8.968;2023-02-19T15:33:33;1.07;;;1.00;;
30998;SDS011;20549;50.042;8.968;2023-02-19T15:36:02;1.50;;;1.22;;
30998;SDS011;20549;50.042;8.968;2023-02-19T15:38:32;1.30;;;1.20;;
30998;SDS011;20549;50.042;8.968;2023-02-19T15:40:59;1.00;;;1.00;;
30998;SDS011;20549;50.042;8.968;2023-02-19T15:46:05;1.07;;;0.98;;
30998;SDS011;20549;50.042;8.968;2023-02-19T15:48:38;1.00;;;0.93;;
30998;SDS011;20549;50.042;8.968;2023-02-19T15:51:05;1.40;;;1.20;;
30998;SDS011;20549;50.042;8.968;2023-02-19T15:53:29;2.30;;;1.10;;
30998;SDS011;20549;50.042;8.968;2023-02-19T15:58:36;1.15;;;1.10;;
30998;SDS011;20549;50.042;8.968;2023-02-19T16:01:14;1.47;;;1.27;;
30998;SDS011;20549;50.042;8.968;2023-02-19T16:03:42;1.40;;;1.20;;
30998;SDS011;20549;50.042;8.968;2023-02-19T16:06:09;1.37;;;1.20;;
30998;SDS011;20549;50.042;8.968;2023-02-19T16:08:36;1.60;;;1.50;;
30998;SDS011;20549;50.042;8.968;2023-02-19T16:11:03;1.60;;;1.50;;
30998;SDS011;20549;50.042;8.968;2023-02-19T16:13:30;1.42;;;1.25;;
30998;SDS011;20549;50.042;8.968;2023-02-19T16:15:56;1.70;;;1.60;;
30998;SDS011;20549;50.042;8.968;2023-02-19T16:18:24;1.70;;;1.60;;
30998;SDS011;20549;50.042;8.968;2023-02-19T16:20:50;2.20;;;1.50;;
30998;SDS011;20549;50.042;8.968;2023-02-19T16:23:17;1.82;;;1.62;;
30998;SDS011;20549;50.042;8.968;2023-02-19T16:25:44;2.20;;;1.80;;
30998;SDS011;20549;50.042;8.968;2023-02-19T16:28:17;2.27;;;1.30;;
30998;SDS011;20549;50.042;8.968;2023-02-19T16:30:39;1.20;;;1.12;;
30998;SDS011;20549;50.042;8.968;2023-02-19T16:33:19;1.35;;;1.12;;
30998;SDS011;20549;50.042;8.968;2023-02-19T16:36:20;1.17;;;1.10;;